Latest Weather Observations for Montague Island

IDN60801

Issued at 7:05 pm EDT Sunday 26 October 2014 (issued every 30 minutes, with the page automatically refreshed every 10 minutes)

About weather observations | Map of weather stations | Latest weather observations for NSW | Other Formats
Station Details ID: 069017 Name: MONTAGUE ISLAND LIGHTHOUSE Lat: -36.25 Lon: 150.23 Height: 52.0 m
Data from the previous 72 hours. | See also: Recent months at Montague Island
Date/Time
EDT
Temp
°C
App
Temp
°C
Dew
Point
Rel
Hum
%
Delta-T
°C
Wind Press
QNH
hPa
Press
MSL
hPa
Rain
since 9 am
mm
Dir
 
Spd
km/h
Gust
km/h
Spd
kts
Gust
kts
26/07:00pm 17.2 14.6 14.8 86 1.4 S 22 30 12 16 1012.9 1012.9 0.0
26/06:30pm 17.2 13.8 14.8 86 1.4 S 26 32 14 17 1012.2 1012.2 0.0
26/06:00pm 17.3 13.5 14.8 85 1.4 S 28 33 15 18 1012.0 1012.0 0.0
26/05:30pm 17.3 13.2 14.9 86 1.4 SSE 30 37 16 20 1011.3 1011.3 0.0
26/05:00pm 17.6 13.3 15.4 87 1.3 S 32 37 17 20 1011.2 1011.2 0.0
26/04:30pm 18.0 14.1 15.6 86 1.4 SSE 30 35 16 19 1010.7 1010.7 0.0
26/04:00pm 18.3 14.3 16.1 87 1.3 SSE 32 39 17 21 1010.6 1010.6 0.0
26/03:30pm 18.3 14.2 15.9 86 1.4 S 32 39 17 21 1010.7 1010.7 0.0
26/03:00pm 18.1 14.1 16.3 89 1.1 SSE 32 37 17 20 1010.5 1010.5 0.0
26/02:30pm 18.2 15.0 16.4 89 1.1 SSE 28 32 15 17 1010.8 1010.8 0.0
26/02:00pm 18.6 15.9 16.6 88 1.2 S 26 32 14 17 1011.1 1011.1 0.0
26/01:30pm 18.7 16.5 16.9 89 1.1 S 24 32 13 17 1011.1 1011.1 0.0
26/01:00pm 17.9 15.2 16.6 92 0.8 S 26 30 14 16 1011.0 1011.0 0.0
26/12:30pm 18.0 15.0 16.7 92 0.8 SSW 28 35 15 19 1010.8 1010.8 0.0
26/12:00pm 17.8 14.2 16.3 91 0.9 S 30 35 16 19 1011.1 1011.1 0.0
26/11:30am 18.2 15.7 17.0 93 0.7 S 26 32 14 17 1011.1 1011.1 0.0
26/11:00am 18.3 15.6 17.5 95 0.5 S 28 33 15 18 1011.1 1011.1 0.0
26/10:30am 17.3 15.5 17.0 98 0.2 S 22 28 12 15 1011.4 1011.4 0.0
26/10:00am 17.3 16.2 17.3 100 0.0 SSW 19 22 10 12 1011.3 1011.3 0.0
26/09:30am 17.1 16.3 17.1 100 0.0 SSW 17 22 9 12 1011.1 1011.1 0.0
26/09:00am 16.9 15.9 16.7 99 0.1 SSW 17 20 9 11 1011.1 1011.1 1.0
26/08:30am 17.0 17.2 16.8 99 0.1 SSW 11 13 6 7 1011.1 1011.1 1.0
26/08:00am 16.9 17.5 16.7 99 0.1 SW 9 11 5 6 1011.0 1011.0 1.0
26/07:30am 16.8 16.9 16.6 99 0.1 WSW 11 13 6 7 1011.1 1011.1 1.0
26/07:00am 16.8 17.3 16.6 99 0.1 WSW 9 11 5 6 1010.9 1010.9 1.0
26/06:30am 16.7 18.1 16.5 99 0.1 SSE 4 6 2 3 1010.7 1010.7 0.8
26/06:00am 16.9 18.4 16.7 99 0.1 SE 4 6 2 3 1010.9 1010.9 0.6
26/05:30am 16.8 17.3 16.6 99 0.1 ENE 9 11 5 6 1010.8 1010.8 0.6
26/05:00am 16.8 17.3 16.5 98 0.2 NE 9 11 5 6 1010.7 1010.7 0.4
26/04:30am 16.8 18.2 16.5 98 0.2 NNE 4 6 2 3 1011.0 1011.0 0.2
26/04:00am 16.8 17.8 16.3 97 0.3 NNE 6 7 3 4 1011.2 1011.2 0.0
26/03:30am 16.8 16.8 16.2 96 0.4 NE 11 15 6 8 1011.4 1011.4 0.0
26/03:00am 16.9 16.8 16.1 95 0.5 ENE 11 15 6 8 1011.9 1011.9 0.0
26/02:30am 17.1 17.0 16.1 94 0.6 NE 11 13 6 7 1012.5 1012.5 0.0
26/02:00am 17.3 16.9 16.2 93 0.7 ENE 13 17 7 9 1013.1 1013.0 0.0
26/01:30am 17.1 15.9 16.1 94 0.6 ENE 17 19 9 10 1013.5 1013.4 0.0
26/01:00am 17.2 16.1 16.4 95 0.5 ENE 17 22 9 12 1014.0 1013.9 0.0
26/12:30am 17.2 16.9 16.4 95 0.5 E 13 17 7 9 1014.7 1014.6 0.0
26/12:00am 17.0 16.6 16.2 95 0.5 E 13 15 7 8 1015.0 1014.9 0.0
 
Date/Time
EDT
Temp
°C
App
Temp
°C
Dew
Point
Rel
Hum
%
Delta-T
°C
Wind Press
QNH
hPa
Press
MSL
hPa
Rain
since 9 am
mm
Dir
 
Spd
km/h
Gust
km/h
Spd
kts
Gust
kts
25/11:30pm 16.9 17.2 16.1 95 0.5 ENE 9 11 5 6 1015.4 1015.3 0.0
25/11:00pm 16.8 17.1 16.0 95 0.5 NE 9 13 5 7 1015.6 1015.5 0.0
25/10:30pm 16.7 17.4 15.7 94 0.6 E 6 7 3 4 1015.8 1015.7 0.0
25/10:00pm 16.8 17.3 15.5 92 0.8 ESE 7 11 4 6 1015.9 1015.8 0.0
25/09:30pm 17.0 17.4 15.3 90 1.0 E 7 13 4 7 1016.0 1015.9 0.0
25/09:00pm 17.2 17.2 15.2 88 1.2 ENE 9 11 5 6 1016.1 1016.0 0.0
25/08:30pm 17.4 16.7 15.4 88 1.2 E 13 15 7 8 1015.7 1015.6 0.0
25/08:00pm 17.4 16.2 15.0 86 1.4 ESE 15 17 8 9 1015.6 1015.5 0.0
25/07:30pm 17.5 15.9 15.1 86 1.4 ESE 17 19 9 10 1016.2 1016.1 0.0
25/07:00pm 17.4 16.1 14.7 84 1.6 ESE 15 19 8 10 1015.8 1015.7 0.0
25/06:30pm 17.4 16.2 15.0 86 1.4 E 15 19 8 10 1015.4 1015.3 0.0
25/06:00pm 17.6 16.7 14.9 84 1.6 ESE 13 17 7 9 1015.3 1015.2 0.0
25/05:30pm 17.4 16.5 14.9 85 1.5 E 13 24 7 13 1014.4 1014.3 0.0
25/05:00pm 17.4 16.4 14.7 84 1.6 ESE 13 17 7 9 1015.4 1015.3 0.0
25/04:30pm 17.5 16.1 14.6 83 1.7 ESE 15 19 8 10 1014.7 1014.6 0.0
25/04:00pm 18.0 16.1 15.3 84 1.6 ESE 19 22 10 12 1015.3 1015.2 0.0
25/03:30pm 18.0 15.8 14.9 82 1.8 SE 20 24 11 13 1015.3 1015.2 0.0
25/03:00pm 18.6 16.5 15.1 80 2.0 SE 20 26 11 14 1015.8 1015.7 0.0
25/02:30pm 18.5 15.3 15.4 82 1.8 SE 26 30 14 16 1015.7 1015.6 0.0
25/02:00pm 18.2 15.0 15.3 83 1.7 SE 26 33 14 18 1016.1 1016.0 0.0
25/01:30pm 18.7 15.2 15.4 81 1.9 SE 28 32 15 17 1016.0 1015.9 0.0
25/01:00pm 19.1 16.0 15.6 80 2.1 SE 26 30 14 16 1016.1 1016.0 0.0
25/12:30pm 19.3 16.4 16.0 81 2.0 SSE 26 30 14 16 1016.2 1016.1 0.0
25/12:00pm 18.8 16.0 15.3 80 2.1 SSE 24 30 13 16 1016.4 1016.3 0.0
25/11:30am 19.4 16.9 16.2 82 1.9 SSE 24 28 13 15 1016.6 1016.5 0.0
25/11:00am 19.0 15.7 16.0 83 1.8 SSE 28 32 15 17 1016.5 1016.4 0.0
25/10:30am 18.6 14.5 16.0 85 1.5 SSE 32 35 17 19 1016.6 1016.5 0.0
25/10:00am 18.9 15.6 16.1 84 1.7 SSE 28 32 15 17 1016.6 1016.5 0.0
25/09:30am 18.9 15.7 16.3 85 1.6 SSE 28 32 15 17 1016.6 1016.5 0.0
25/09:00am 20.1 19.1 16.7 81 2.1 S 17 22 9 12 1016.2 1016.1 0.2
25/08:30am 19.6 18.8 17.2 86 1.5 S 17 22 9 12 1016.1 1016.0 0.2
25/08:00am 18.0 18.0 17.2 95 0.5 SSW 13 19 7 10 1015.7 1015.6 0.2
25/07:30am 17.6 16.9 17.4 99 0.1 SW 17 22 9 12 1015.4 1015.3 0.2
25/07:00am 16.9 15.6 16.9 100 0.0 SW 19 20 10 11 1015.1 1015.0 0.2
25/06:30am 16.7 15.7 16.7 100 0.0 SSW 17 22 9 12 1014.9 1014.8 0.2
25/06:00am 16.9 13.9 16.7 99 0.1 S 28 33 15 18 1014.3 1014.2 0.2
25/05:30am 16.8 13.7 16.6 99 0.1 SSW 28 32 15 17 1013.7 1013.6 0.2
25/05:00am 16.7 13.2 16.5 99 0.1 SSW 30 33 16 18 1013.4 1013.3 0.2
25/04:30am 16.9 14.6 16.7 99 0.1 SSW 24 30 13 16 1013.1 1013.0 0.2
25/04:00am 17.2 15.0 16.9 98 0.2 SSW 24 30 13 16 1012.4 1012.4 0.2
25/03:30am 17.1 15.6 16.8 98 0.2 SSW 20 26 11 14 1012.3 1012.3 0.2
25/03:00am 17.1 16.5 16.6 97 0.3 SW 15 19 8 10 1012.0 1012.0 0.2
25/02:30am 17.9 19.7 17.3 96 0.4 ESE 4 6 2 3 1011.5 1011.5 0.2
25/02:00am 17.9 18.6 17.1 95 0.5 SW 9 13 5 7 1011.6 1011.6 0.2
25/01:30am 18.7 20.8 18.0 96 0.4 SE 4 7 2 4 1011.5 1011.5 0.2
25/01:00am 18.4 19.8 17.8 96 0.4 E 7 9 4 5 1011.5 1011.5 0.2
25/12:30am 18.2 19.1 17.6 96 0.4 SSE 9 17 5 9 1011.4 1011.4 0.2
25/12:00am 18.2 19.6 17.7 97 0.3 NW 7 13 4 7 1011.4 1011.4 0.2
 
Date/Time
EDT
Temp
°C
App
Temp
°C
Dew
Point
Rel
Hum
%
Delta-T
°C
Wind Press
QNH
hPa
Press
MSL
hPa
Rain
since 9 am
mm
Dir
 
Spd
km/h
Gust
km/h
Spd
kts
Gust
kts
24/11:30pm 18.1 17.9 17.6 97 0.3 N 15 17 8 9 1011.4 1011.4 0.2
24/11:00pm 18.3 16.8 17.7 96 0.4 N 22 28 12 15 1011.2 1011.2 0.2
24/10:30pm 18.6 16.4 17.9 96 0.4 N 26 32 14 17 1011.2 1011.2 0.2
24/10:00pm 18.8 17.1 18.0 95 0.5 N 24 32 13 17 1011.4 1011.4 0.2
24/09:30pm 19.0 17.2 17.8 93 0.7 N 24 30 13 16 1011.8 1011.8 0.2
24/09:00pm 19.4 16.2 18.1 92 0.8 N 32 41 17 22 1011.7 1011.7 0.2
24/08:30pm 19.2 15.9 18.0 93 0.7 N 32 44 17 24 1011.5 1011.5 0.2
24/08:00pm 19.4 14.9 18.2 93 0.7 N 39 44 21 24 1011.3 1011.3 0.2
24/07:30pm 19.4 13.9 18.1 92 0.8 NNE 44 52 24 28 1011.1 1011.1 0.2
24/07:00pm 19.4 15.6 18.1 92 0.8 N 35 48 19 26 1011.2 1011.2 0.2
24/06:30pm 19.6 15.0 18.1 91 0.9 N 39 52 21 28 1011.1 1011.1 0.2
24/06:00pm 19.9 15.7 18.0 89 1.2 NNE 37 46 20 25 1011.1 1011.1 0.2
24/05:30pm 20.0 16.2 18.1 89 1.2 NNE 35 41 19 22 1011.2 1011.2 0.2
24/05:00pm 20.1 15.4 17.7 86 1.5 NNE 39 46 21 25 1011.3 1011.3 0.2
24/04:30pm 20.5 15.9 17.9 85 1.6 NNE 39 46 21 25 1011.3 1011.3 0.2
24/04:00pm 20.6 15.2 17.8 84 1.7 NNE 43 50 23 27 1011.6 1011.6 0.2
24/03:30pm 20.7 14.1 18.3 86 1.5 N 50 61 27 33 1011.9 1011.9 0.2
24/03:00pm 20.6 14.5 18.5 88 1.3 N 48 57 26 31 1012.0 1012.0 0.2
24/02:30pm 20.4 13.9 18.5 89 1.2 NNE 50 61 27 33 1012.1 1012.1 0.2
24/02:00pm 20.6 14.5 18.4 87 1.4 NNE 48 59 26 32 1012.7 1012.7 0.2
24/01:30pm 20.4 14.7 18.5 89 1.2 NNE 46 56 25 30 1013.6 1013.5 0.2
24/01:00pm 20.5 14.9 18.8 90 1.1 N 46 54 25 29 1014.1 1014.0 0.2
24/12:30pm 20.2 14.5 18.5 90 1.1 N 46 57 25 31 1014.8 1014.7 0.2
24/12:00pm 20.1 16.7 18.2 89 1.2 N 33 44 18 24 1015.4 1015.3 0.2
24/11:30am 20.1 16.7 18.1 88 1.2 N 33 43 18 23 1016.1 1016.0 0.2
24/11:00am 20.2 17.7 18.1 88 1.3 N 28 39 15 21 1016.7 1016.6 0.2
24/10:30am 20.1 18.0 18.1 88 1.2 N 26 33 14 18 1017.3 1017.2 0.2
24/10:00am 19.4 17.8 17.4 88 1.2 N 22 30 12 16 1017.5 1017.4 0.2
24/09:30am 19.4 18.8 18.4 94 0.6 N 19 24 10 13 1018.0 1017.9 0.2
24/09:00am 18.5 17.6 17.7 95 0.5 N 19 24 10 13 1018.2 1018.1 -
24/08:30am 18.3 18.2 17.8 97 0.3 N 15 20 8 11 1018.2 1018.1 -
24/08:00am 18.4 17.9 17.9 97 0.3 N 17 24 9 13 1018.4 1018.3 -
24/07:30am 17.9 16.8 17.4 97 0.3 NNW 19 24 10 13 1018.6 1018.5 -
24/07:00am 18.1 17.9 17.6 97 0.3 NNW 15 19 8 10 1018.5 1018.4 -
24/06:30am 18.5 16.3 17.9 96 0.4 N 26 30 14 16 1018.1 1018.0 -
24/06:00am 18.4 16.2 17.8 96 0.4 N 26 33 14 18 1018.0 1017.9 -
24/05:30am 18.1 18.7 17.8 98 0.2 ENE 11 24 6 13 1018.2 1018.1 -
24/05:00am 18.2 19.2 17.7 97 0.3 N 9 17 5 9 1018.8 1018.7 -
24/04:30am 17.8 17.6 17.6 99 0.1 ENE 15 19 8 10 1017.5 1017.4 -
24/04:00am 17.4 17.0 17.2 99 0.1 SE 15 17 8 9 1018.3 1018.2 -
24/03:30am 17.1 16.2 16.8 98 0.2 S 17 20 9 11 1019.0 1018.9 -
24/03:00am 17.7 17.7 17.2 97 0.3 ESE 13 28 7 15 1019.0 1018.9 1.0
24/02:30am 17.2 15.4 16.9 98 0.2 N 22 28 12 15 1018.2 1018.1 -
24/02:00am 17.4 15.6 16.9 97 0.3 WSW 22 28 12 15 1019.3 1019.2 -
24/01:30am 17.8 19.2 17.3 97 0.3 E 6 13 3 7 1018.9 1018.8 -
24/01:00am 17.8 17.8 17.3 97 0.3 ESE 13 22 7 12 1019.3 1019.2 -
24/12:30am 17.5 16.2 16.9 96 0.4 SSE 19 26 10 14 1019.2 1019.1 -
24/12:00am 17.7 18.0 16.9 95 0.5 S 11 15 6 8 1019.6 1019.5 -
 
Date/Time
EDT
Temp
°C
App
Temp
°C
Dew
Point
Rel
Hum
%
Delta-T
°C
Wind Press
QNH
hPa
Press
MSL
hPa
Rain
since 9 am
mm
Dir
 
Spd
km/h
Gust
km/h
Spd
kts
Gust
kts
23/11:30pm 18.0 18.7 17.0 94 0.6 WSW 9 13 5 7 1019.6 1019.5 -
23/11:00pm 18.4 17.2 17.6 95 0.5 NW 20 24 11 13 1019.6 1019.5 -
23/10:30pm 18.2 15.5 17.6 96 0.4 ENE 28 33 15 18 1018.5 1018.4 -
23/10:00pm 17.8 15.3 17.2 96 0.4 E 26 30 14 16 1019.1 1019.0 -
23/09:30pm 17.9 19.0 16.6 92 0.8 N 6 11 3 6 1020.2 1020.1 -
23/09:00pm 17.8 16.5 16.8 94 0.6 WSW 19 26 10 14 1021.1 1021.0 0.0
23/08:30pm 17.6 16.6 16.6 94 0.6 SW 17 19 9 10 1020.3 1020.2 -
23/08:00pm 17.8 14.8 16.8 94 0.6 SW 28 35 15 19 1019.7 1019.6 -
23/07:30pm 18.4 17.0 17.1 92 0.8 S 20 26 11 14 1018.9 1018.8 -

Other Formats:

Comma delimited format used in spreadsheet applications
http://www.bom.gov.au/fwo/IDN60801/IDN60801.94939.axf

JavaScript Object Notation format (JSON) in row-major order
http://www.bom.gov.au/fwo/IDN60801/IDN60801.94939.json